Time;durP1;ratioP1;P1;durP2;ratioP2;P2;SDS_P1;SDS_P2;PMS_P1;PMS_P2;Temp;Humidity;BMP_temperature;BMP_pressure;BME280_temperature;BME280_humidity;BME280_pressure;Samples;Min_cycle;Max_cycle;Signal;HPM_P1;HPM_P2
2022/09/19 00:00:36;;;;;;;;;;;9.70;99.90;;;;;;5057688;28;19909;-67
2022/09/19 00:03:02;;;;;;;;;;;9.70;99.90;;;;;;5076290;28;19983;-67
2022/09/19 00:05:28;;;;;;;;;;;9.60;99.90;;;;;;5076247;28;19962;-67
2022/09/19 00:07:54;;;;;;;;;;;9.60;99.90;;;;;;5075824;28;20015;-67
2022/09/19 00:10:19;;;;;;;;;;;9.60;99.90;;;;;;5058246;28;19958;-67
2022/09/19 00:12:45;;;;;;;;;;;9.70;99.90;;;;;;5075884;28;19912;-67
2022/09/19 00:15:10;;;;;;;;;;;9.70;99.90;;;;;;5076072;28;20359;-67
2022/09/19 00:17:36;;;;;;;;;;;9.70;99.90;;;;;;5076022;28;20029;-67
2022/09/19 00:20:01;;;;;;;;;;;9.60;99.90;;;;;;5075749;28;19909;-67
2022/09/19 00:22:27;;;;;;;;;;;9.50;99.90;;;;;;5075952;28;20025;-67
2022/09/19 00:24:52;;;;;;;;;;;9.60;99.90;;;;;;5075874;28;20005;-67
2022/09/19 00:27:19;;;;;;;;;;;9.50;99.90;;;;;;5075525;28;20300;-66
2022/09/19 00:29:45;;;;;;;;;;;9.40;99.90;;;;;;5075558;28;19909;-67
2022/09/19 00:32:12;;;;;;;;;;;9.50;99.90;;;;;;5075742;28;19909;-67
2022/09/19 00:34:39;;;;;;;;;;;9.40;99.90;;;;;;5075377;28;20394;-66
2022/09/19 00:37:05;;;;;;;;;;;9.50;99.90;;;;;;5075647;28;19974;-67
2022/09/19 00:39:31;;;;;;;;;;;9.40;99.90;;;;;;5075538;28;19998;-67
2022/09/19 00:41:56;;;;;;;;;;;9.40;99.90;;;;;;5057501;28;20379;-66
2022/09/19 00:44:25;;;;;;;;;;;9.40;99.90;;;;;;5075179;28;19915;-67
2022/09/19 00:46:53;;;;;;;;;;;9.40;99.90;;;;;;5075163;28;19914;-67
2022/09/19 00:49:20;;;;;;;;;;;9.40;99.90;;;;;;5075305;28;20405;-67
2022/09/19 00:51:48;;;;;;;;;;;9.40;99.90;;;;;;5075318;28;19908;-67
2022/09/19 00:54:18;;;;;;;;;;;9.40;99.90;;;;;;5075006;28;19959;-67
2022/09/19 00:56:46;;;;;;;;;;;9.40;99.90;;;;;;5075253;28;20383;-66
2022/09/19 00:59:11;;;;;;;;;;;9.50;99.90;;;;;;5075106;28;19909;-67
2022/09/19 01:01:38;;;;;;;;;;;9.50;99.90;;;;;;5074815;28;20328;-66
2022/09/19 01:04:19;;;;;;;;;;;9.40;99.90;;;;;;5075080;28;19909;-67
2022/09/19 01:06:53;;;;;;;;;;;9.50;99.90;;;;;;5075027;28;20397;-67
2022/09/19 01:09:35;;;;;;;;;;;9.50;99.90;;;;;;5074892;28;20400;-67
2022/09/19 01:12:21;;;;;;;;;;;9.50;99.90;;;;;;5074135;28;19915;-66
2022/09/19 01:15:09;;;;;;;;;;;9.50;99.90;;;;;;5074579;28;19908;-67
2022/09/19 01:17:42;;;;;;;;;;;9.60;99.90;;;;;;5074505;28;19915;-67
2022/09/19 01:20:11;;;;;;;;;;;9.60;99.90;;;;;;5074784;28;20374;-67
2022/09/19 01:22:44;;;;;;;;;;;9.60;99.90;;;;;;5074768;28;19970;-67
2022/09/19 01:25:31;;;;;;;;;;;9.60;99.90;;;;;;5074740;28;20363;-67
2022/09/19 01:28:10;;;;;;;;;;;9.60;99.90;;;;;;5074084;28;20271;-67
2022/09/19 01:30:38;;;;;;;;;;;9.60;99.90;;;;;;5074595;28;19908;-67
2022/09/19 01:33:06;;;;;;;;;;;9.50;99.90;;;;;;5074260;28;19916;-67
2022/09/19 01:35:37;;;;;;;;;;;9.50;99.90;;;;;;5074452;28;19915;-66
2022/09/19 01:38:07;;;;;;;;;;;9.50;99.90;;;;;;5074447;28;19919;-66
2022/09/19 01:40:33;;;;;;;;;;;9.40;99.90;;;;;;5074109;28;19915;-67
2022/09/19 01:42:58;;;;;;;;;;;9.50;99.90;;;;;;5074107;28;20003;-67
2022/09/19 01:45:28;;;;;;;;;;;9.40;99.90;;;;;;5074294;28;19958;-66
2022/09/19 01:47:59;;;;;;;;;;;9.40;99.90;;;;;;5073944;28;20019;-67
2022/09/19 01:50:32;;;;;;;;;;;9.40;99.90;;;;;;5073979;28;19912;-67
2022/09/19 01:53:17;;;;;;;;;;;9.40;99.90;;;;;;5074192;28;19916;-66
2022/09/19 01:56:02;;;;;;;;;;;9.40;99.90;;;;;;5073753;28;20000;-66
2022/09/19 01:58:48;;;;;;;;;;;9.40;99.90;;;;;;5073719;28;19912;-67
2022/09/19 02:01:33;;;;;;;;;;;9.30;99.90;;;;;;5073691;28;19909;-66
2022/09/19 02:04:05;;;;;;;;;;;9.30;99.90;;;;;;5073675;28;19936;-67
2022/09/19 02:06:46;;;;;;;;;;;9.30;99.90;;;;;;5074003;28;19909;-67
2022/09/19 02:09:22;;;;;;;;;;;9.20;99.90;;;;;;5073871;28;19919;-67
2022/09/19 02:11:50;;;;;;;;;;;9.20;99.90;;;;;;5073953;28;19991;-67
2022/09/19 02:14:18;;;;;;;;;;;9.10;99.90;;;;;;5073966;28;20367;-66
2022/09/19 02:16:46;;;;;;;;;;;9.10;99.90;;;;;;5073669;28;19940;-66
2022/09/19 02:19:17;;;;;;;;;;;9.10;99.90;;;;;;5056329;28;19915;-66
2022/09/19 02:21:47;;;;;;;;;;;9.10;99.90;;;;;;5073801;28;20397;-66
2022/09/19 02:24:14;;;;;;;;;;;9.10;99.90;;;;;;5055805;28;19916;-66
2022/09/19 02:26:41;;;;;;;;;;;9.20;99.90;;;;;;5073636;28;19955;-66
2022/09/19 02:29:08;;;;;;;;;;;9.20;99.90;;;;;;5073442;28;19918;-66
2022/09/19 02:31:34;;;;;;;;;;;9.20;99.90;;;;;;5073709;28;19931;-66
2022/09/19 02:34:02;;;;;;;;;;;9.30;99.90;;;;;;5073753;28;19908;-66
2022/09/19 02:36:32;;;;;;;;;;;9.30;99.90;;;;;;5073544;28;19966;-66
2022/09/19 02:39:06;;;;;;;;;;;9.30;99.90;;;;;;5073705;28;19958;-66
2022/09/19 02:41:36;;;;;;;;;;;9.40;99.90;;;;;;5073415;28;19962;-67
2022/09/19 02:46:48;;;;;;;;;;;9.40;99.90;;;;;;5071107;28;19913;-66
2022/09/19 02:49:16;;;;;;;;;;;9.40;99.90;;;;;;5070984;28;20437;-66
2022/09/19 02:51:45;;;;;;;;;;;9.30;99.90;;;;;;5070990;28;20011;-65
2022/09/19 02:54:14;;;;;;;;;;;9.40;99.90;;;;;;5070877;28;19928;-66
2022/09/19 02:56:41;;;;;;;;;;;9.30;99.90;;;;;;5070871;28;20325;-65
2022/09/19 02:59:10;;;;;;;;;;;9.30;99.90;;;;;;5070773;28;19958;-66
2022/09/19 03:01:39;;;;;;;;;;;9.20;99.90;;;;;;5070989;28;19931;-66
2022/09/19 03:04:23;;;;;;;;;;;9.20;99.90;;;;;;5070948;28;20393;-66
2022/09/19 03:06:53;;;;;;;;;;;9.10;99.90;;;;;;5070925;28;20425;-66
2022/09/19 03:09:21;;;;;;;;;;;9.20;99.90;;;;;;5070889;28;20378;-66
2022/09/19 03:11:50;;;;;;;;;;;9.20;99.90;;;;;;5070511;28;19913;-66
2022/09/19 03:14:16;;;;;;;;;;;9.10;99.90;;;;;;5070670;28;19909;-66
2022/09/19 03:16:47;;;;;;;;;;;9.10;99.90;;;;;;5070661;28;20070;-66
2022/09/19 03:19:12;;;;;;;;;;;9.10;99.90;;;;;;5070634;28;20440;-66
2022/09/19 03:21:38;;;;;;;;;;;9.00;99.90;;;;;;5070337;28;20004;-66
2022/09/19 03:24:04;;;;;;;;;;;9.00;99.90;;;;;;5070523;28;19915;-66
2022/09/19 03:26:32;;;;;;;;;;;9.00;99.90;;;;;;5070158;28;20007;-66
2022/09/19 03:28:58;;;;;;;;;;;8.90;99.90;;;;;;5070423;28;20287;-66
2022/09/19 03:31:24;;;;;;;;;;;8.90;99.90;;;;;;5070446;28;19912;-66
2022/09/19 03:33:51;;;;;;;;;;;8.80;99.90;;;;;;5070342;28;19909;-66
2022/09/19 03:36:17;;;;;;;;;;;8.80;99.90;;;;;;5070082;28;19919;-66
2022/09/19 03:38:44;;;;;;;;;;;8.80;99.90;;;;;;5070179;28;19962;-66
2022/09/19 03:41:11;;;;;;;;;;;8.80;99.90;;;;;;5070118;28;19909;-66
2022/09/19 03:43:37;;;;;;;;;;;8.80;99.90;;;;;;5069842;28;20372;-66
2022/09/19 03:46:02;;;;;;;;;;;8.70;99.90;;;;;;5084812;28;19931;-66
2022/09/19 03:48:28;;;;;;;;;;;8.70;99.90;;;;;;5090015;28;19979;-66
2022/09/19 03:50:54;;;;;;;;;;;8.80;99.90;;;;;;5089999;28;19916;-66
2022/09/19 03:53:20;;;;;;;;;;;8.70;99.90;;;;;;5071814;28;19909;-66
2022/09/19 03:55:45;;;;;;;;;;;8.80;99.90;;;;;;5089977;28;19909;-66
2022/09/19 03:58:11;;;;;;;;;;;8.80;99.90;;;;;;5076057;28;20367;-66
2022/09/19 04:00:36;;;;;;;;;;;8.70;99.90;;;;;;5058581;28;20508;-66
2022/09/19 04:03:02;;;;;;;;;;;8.80;99.90;;;;;;5076538;28;19916;-66
2022/09/19 04:05:28;;;;;;;;;;;8.80;99.90;;;;;;5057747;28;20359;-65
2022/09/19 04:07:54;;;;;;;;;;;8.80;99.90;;;;;;5076116;28;20332;-65
2022/09/19 04:10:20;;;;;;;;;;;8.80;99.90;;;;;;5076374;28;19908;-65
2022/09/19 04:12:48;;;;;;;;;;;8.80;99.90;;;;;;5076076;28;19915;-66
2022/09/19 04:15:14;;;;;;;;;;;8.90;99.90;;;;;;5076281;28;20328;-66
2022/09/19 04:17:40;;;;;;;;;;;8.90;99.90;;;;;;5075924;28;19909;-66
2022/09/19 04:20:06;;;;;;;;;;;8.90;99.90;;;;;;5076003;28;19939;-65
2022/09/19 04:22:31;;;;;;;;;;;9.00;99.90;;;;;;5076173;28;19909;-66
2022/09/19 04:24:56;;;;;;;;;;;9.10;99.90;;;;;;5076027;28;19912;-66
2022/09/19 04:27:22;;;;;;;;;;;9.20;99.90;;;;;;5075831;28;20440;-66
2022/09/19 04:29:48;;;;;;;;;;;9.30;99.90;;;;;;5057861;28;19916;-66
2022/09/19 04:32:15;;;;;;;;;;;9.30;99.90;;;;;;5058122;28;19915;-66
2022/09/19 04:34:43;;;;;;;;;;;9.40;99.90;;;;;;5075908;28;19936;-66
2022/09/19 04:37:08;;;;;;;;;;;9.40;99.90;;;;;;5075938;28;19908;-66
2022/09/19 04:39:34;;;;;;;;;;;9.40;99.90;;;;;;5075805;28;20324;-66
2022/09/19 04:42:01;;;;;;;;;;;9.50;99.90;;;;;;5075547;28;19909;-66
2022/09/19 04:44:29;;;;;;;;;;;9.50;99.90;;;;;;5075431;28;19908;-66
2022/09/19 04:46:55;;;;;;;;;;;9.50;99.90;;;;;;5075721;28;19912;-66
2022/09/19 04:49:20;;;;;;;;;;;9.50;99.90;;;;;;5075389;28;19912;-66
2022/09/19 04:51:46;;;;;;;;;;;9.50;99.90;;;;;;5075618;28;19916;-67
2022/09/19 04:54:12;;;;;;;;;;;9.60;99.90;;;;;;5075385;28;19947;-66
2022/09/19 04:56:37;;;;;;;;;;;9.60;99.90;;;;;;5075247;28;19909;-66
2022/09/19 04:59:03;;;;;;;;;;;9.60;99.90;;;;;;5075231;28;19939;-66
2022/09/19 05:01:30;;;;;;;;;;;9.60;99.90;;;;;;5075414;28;19916;-66
2022/09/19 05:03:56;;;;;;;;;;;9.70;99.90;;;;;;5075103;28;19944;-66
2022/09/19 05:06:22;;;;;;;;;;;9.70;99.90;;;;;;5075231;28;19982;-66
2022/09/19 05:08:47;;;;;;;;;;;9.80;99.90;;;;;;5074031;28;19940;-67
2022/09/19 05:11:13;;;;;;;;;;;9.70;99.90;;;;;;5075230;28;19991;-67
2022/09/19 05:13:39;;;;;;;;;;;9.80;99.90;;;;;;5075177;28;19908;-66
2022/09/19 05:16:05;;;;;;;;;;;9.70;99.90;;;;;;5075119;28;19957;-66
2022/09/19 05:18:34;;;;;;;;;;;9.70;99.90;;;;;;5075047;28;19909;-66
2022/09/19 05:21:02;;;;;;;;;;;9.70;99.90;;;;;;5075021;28;19908;-67
2022/09/19 05:23:29;;;;;;;;;;;9.80;99.90;;;;;;5074666;28;19954;-67
2022/09/19 05:25:54;;;;;;;;;;;9.90;99.90;;;;;;5074834;28;19958;-66
2022/09/19 05:28:21;;;;;;;;;;;9.80;99.90;;;;;;5074883;28;20319;-67
2022/09/19 05:30:49;;;;;;;;;;;9.80;99.90;;;;;;5074823;28;19909;-66
2022/09/19 05:33:18;;;;;;;;;;;9.80;99.90;;;;;;5074769;28;19913;-66
2022/09/19 05:35:44;;;;;;;;;;;9.80;99.90;;;;;;5074681;28;19909;-66
2022/09/19 05:38:10;;;;;;;;;;;9.80;99.90;;;;;;5074318;28;20003;-66
2022/09/19 05:40:36;;;;;;;;;;;9.80;99.90;;;;;;5074347;28;19908;-66
2022/09/19 05:43:03;;;;;;;;;;;9.80;99.90;;;;;;5074293;28;19909;-66
2022/09/19 05:45:28;;;;;;;;;;;9.80;99.90;;;;;;5074098;28;20010;-66
2022/09/19 05:48:01;;;;;;;;;;;9.80;99.90;;;;;;5074189;28;19944;-66
2022/09/19 05:50:27;;;;;;;;;;;9.80;99.90;;;;;;5074450;28;19939;-67
2022/09/19 05:55:38;;;;;;;;;;;9.80;99.90;;;;;;5072248;28;19999;-66
2022/09/19 05:58:06;;;;;;;;;;;9.80;99.90;;;;;;5074303;28;20323;-66
2022/09/19 06:00:36;;;;;;;;;;;9.70;99.90;;;;;;5073759;28;19909;-67
2022/09/19 06:03:02;;;;;;;;;;;9.60;99.90;;;;;;5074126;28;19968;-67
2022/09/19 06:05:32;;;;;;;;;;;9.60;99.90;;;;;;5085926;28;20022;-66
2022/09/19 06:07:58;;;;;;;;;;;9.60;99.90;;;;;;5079255;28;20007;-67
2022/09/19 06:10:23;;;;;;;;;;;9.70;99.90;;;;;;5076890;28;20016;-66
2022/09/19 06:12:49;;;;;;;;;;;9.70;99.90;;;;;;5077862;28;19923;-66
2022/09/19 06:15:15;;;;;;;;;;;9.70;99.90;;;;;;5066186;28;19935;-66
2022/09/19 06:17:41;;;;;;;;;;;9.80;99.90;;;;;;5064898;28;19917;-66
2022/09/19 06:20:07;;;;;;;;;;;9.90;99.90;;;;;;5070806;28;19915;-66
2022/09/19 06:22:33;;;;;;;;;;;9.90;99.90;;;;;;5073689;28;19916;-67
2022/09/19 06:24:59;;;;;;;;;;;10.10;99.90;;;;;;5065970;28;19917;-66
2022/09/19 06:27:25;;;;;;;;;;;10.20;99.90;;;;;;5072506;28;20327;-67
2022/09/19 06:29:50;;;;;;;;;;;10.20;99.90;;;;;;5072265;28;19959;-66
2022/09/19 06:32:17;;;;;;;;;;;10.50;99.90;;;;;;5070259;28;19924;-67
2022/09/19 06:34:43;;;;;;;;;;;10.80;99.90;;;;;;5071018;28;19960;-66
2022/09/19 06:37:10;;;;;;;;;;;11.30;99.90;;;;;;5070944;28;19950;-68
2022/09/19 06:39:35;;;;;;;;;;;11.40;99.90;;;;;;5069977;28;20035;-68
2022/09/19 06:42:01;;;;;;;;;;;11.60;99.90;;;;;;5070542;28;20354;-66
2022/09/19 06:44:26;;;;;;;;;;;11.60;99.90;;;;;;5058818;28;19913;-66
2022/09/19 06:46:52;;;;;;;;;;;11.50;99.90;;;;;;5069454;28;19917;-66
2022/09/19 06:49:17;;;;;;;;;;;11.40;99.90;;;;;;5073028;28;19920;-68
2022/09/19 06:51:43;;;;;;;;;;;11.30;99.90;;;;;;5061888;28;19909;-66
2022/09/19 06:54:08;;;;;;;;;;;11.30;99.90;;;;;;5072113;28;19913;-68
2022/09/19 06:56:34;;;;;;;;;;;11.40;99.90;;;;;;5070384;28;19966;-66
2022/09/19 06:58:59;;;;;;;;;;;11.90;99.90;;;;;;5070337;28;19919;-67
2022/09/19 07:01:26;;;;;;;;;;;12.10;99.90;;;;;;5065524;28;19917;-67
2022/09/19 07:03:51;;;;;;;;;;;12.20;99.90;;;;;;5051978;28;19912;-66
2022/09/19 07:06:17;;;;;;;;;;;12.00;99.90;;;;;;5070937;28;19939;-67
2022/09/19 07:08:43;;;;;;;;;;;11.80;99.90;;;;;;5069874;28;19912;-67
2022/09/19 07:11:09;;;;;;;;;;;11.90;99.90;;;;;;5053287;28;19912;-66
2022/09/19 07:13:34;;;;;;;;;;;11.90;99.90;;;;;;5044464;28;19919;-68
2022/09/19 07:16:03;;;;;;;;;;;11.90;99.90;;;;;;5065996;28;19926;-68
2022/09/19 07:18:29;;;;;;;;;;;12.00;99.90;;;;;;5070945;28;20299;-66
2022/09/19 07:20:58;;;;;;;;;;;12.00;99.90;;;;;;5069504;28;20290;-67
2022/09/19 07:23:23;;;;;;;;;;;12.00;99.90;;;;;;5069482;28;19920;-67
2022/09/19 07:25:49;;;;;;;;;;;12.00;99.90;;;;;;5070613;28;19927;-66
2022/09/19 07:28:16;;;;;;;;;;;12.20;99.90;;;;;;5071206;28;20359;-67
2022/09/19 07:30:43;;;;;;;;;;;13.20;99.90;;;;;;5069184;28;19913;-68
2022/09/19 07:33:10;;;;;;;;;;;13.70;99.90;;;;;;5067182;28;20431;-67
2022/09/19 07:35:37;;;;;;;;;;;13.80;99.90;;;;;;5074710;28;19919;-67
2022/09/19 07:38:03;;;;;;;;;;;13.70;99.90;;;;;;5070538;28;19920;-67
2022/09/19 07:40:29;;;;;;;;;;;13.50;99.90;;;;;;5074589;28;20015;-67
2022/09/19 07:42:58;;;;;;;;;;;13.40;99.90;;;;;;5087111;28;19982;-67
2022/09/19 07:45:37;;;;;;;;;;;13.40;99.90;;;;;;5072893;28;19924;-67
2022/09/19 07:48:03;;;;;;;;;;;13.60;99.90;;;;;;5072226;28;20436;-67
2022/09/19 07:50:29;;;;;;;;;;;13.80;99.90;;;;;;5074368;28;19919;-67
2022/09/19 07:52:58;;;;;;;;;;;14.20;99.90;;;;;;5075061;28;19912;-67
2022/09/19 07:55:24;;;;;;;;;;;13.80;99.90;;;;;;5073412;28;19992;-67
2022/09/19 07:57:50;;;;;;;;;;;13.80;99.90;;;;;;5072924;28;20492;-67
2022/09/19 08:00:16;;;;;;;;;;;13.60;99.90;;;;;;5074989;28;19919;-68
2022/09/19 08:02:42;;;;;;;;;;;13.60;99.90;;;;;;5071736;28;20290;-68
2022/09/19 08:05:08;;;;;;;;;;;13.60;99.90;;;;;;5057053;28;19920;-67
2022/09/19 08:07:33;;;;;;;;;;;13.60;99.90;;;;;;5078307;28;19952;-67
2022/09/19 08:10:01;;;;;;;;;;;13.80;99.90;;;;;;5056319;28;20391;-67
2022/09/19 08:12:26;;;;;;;;;;;13.80;99.90;;;;;;5072304;28;19912;-67
2022/09/19 08:14:53;;;;;;;;;;;13.80;99.90;;;;;;5074716;28;20455;-68
2022/09/19 08:17:19;;;;;;;;;;;13.90;99.90;;;;;;5071839;28;19999;-67
2022/09/19 08:19:45;;;;;;;;;;;13.90;99.90;;;;;;5075617;28;20430;-67
2022/09/19 08:22:11;;;;;;;;;;;13.70;99.90;;;;;;5075242;28;19912;-68
2022/09/19 08:24:37;;;;;;;;;;;14.30;99.90;;;;;;5074049;28;19920;-67
2022/09/19 08:27:02;;;;;;;;;;;14.90;99.90;;;;;;5073766;28;19912;-68
2022/09/19 08:29:28;;;;;;;;;;;15.20;99.90;;;;;;5085441;28;20362;-68
2022/09/19 08:31:53;;;;;;;;;;;15.10;99.90;;;;;;5072132;28;19944;-67
2022/09/19 08:34:18;;;;;;;;;;;15.00;99.90;;;;;;5071517;28;20021;-68
2022/09/19 08:36:44;;;;;;;;;;;15.00;99.90;;;;;;5073728;28;20366;-68
2022/09/19 08:39:09;;;;;;;;;;;15.20;99.90;;;;;;5037998;28;20391;-68
2022/09/19 08:41:48;;;;;;;;;;;15.50;99.90;;;;;;5074395;28;19977;-67
2022/09/19 08:44:21;;;;;;;;;;;16.10;99.90;;;;;;5072728;28;19916;-68
2022/09/19 08:49:32;;;;;;;;;;;15.50;99.90;;;;;;5069229;28;20287;-67
2022/09/19 08:52:18;;;;;;;;;;;15.70;99.90;;;;;;5069276;28;19955;-68
2022/09/19 08:54:46;;;;;;;;;;;15.80;99.90;;;;;;5068126;28;19966;-68
2022/09/19 08:57:20;;;;;;;;;;;16.30;99.90;;;;;;5069701;28;19922;-67
2022/09/19 08:59:46;;;;;;;;;;;16.30;99.90;;;;;;5067588;28;19913;-67
2022/09/19 09:02:17;;;;;;;;;;;16.30;99.90;;;;;;5068625;28;20362;-67
2022/09/19 09:04:43;;;;;;;;;;;16.30;99.90;;;;;;5067744;28;19944;-67
2022/09/19 09:07:16;;;;;;;;;;;15.90;99.90;;;;;;5069429;28;20371;-67
2022/09/19 09:09:52;;;;;;;;;;;15.70;99.90;;;;;;5062561;28;19924;-69
2022/09/19 09:12:26;;;;;;;;;;;15.70;99.90;;;;;;5066397;28;20342;-67
2022/09/19 09:17:40;;;;;;;;;;;16.00;99.90;;;;;;5053102;28;19917;-67
2022/09/19 09:20:28;;;;;;;;;;;16.10;99.90;;;;;;5053113;28;19913;-68
2022/09/19 09:23:14;;;;;;;;;;;15.90;99.90;;;;;;5059750;28;19921;-66
2022/09/19 09:25:42;;;;;;;;;;;15.70;99.90;;;;;;5049596;28;19960;-69
2022/09/19 09:28:18;;;;;;;;;;;15.90;99.90;;;;;;5053639;28;19919;-69
2022/09/19 09:30:46;;;;;;;;;;;15.90;99.90;;;;;;5068788;28;20011;-67
2022/09/19 09:33:29;;;;;;;;;;;15.80;99.90;;;;;;5059954;28;20269;-66
2022/09/19 09:36:06;;;;;;;;;;;15.90;99.90;;;;;;5053672;28;20000;-66
2022/09/19 09:38:34;;;;;;;;;;;16.00;99.90;;;;;;5042956;28;19919;-66
2022/09/19 09:43:50;;;;;;;;;;;;;;;;;;5058144;28;19916;-69
2022/09/19 09:46:22;;;;;;;;;;;16.50;99.90;;;;;;5057281;28;20374;-69
2022/09/19 09:48:50;;;;;;;;;;;16.70;99.90;;;;;;5051523;28;19928;-66
2022/09/19 09:51:23;;;;;;;;;;;16.80;99.90;;;;;;5062043;28;19912;-69
2022/09/19 09:56:47;;;;;;;;;;;16.40;99.90;;;;;;5055666;28;20395;-68
2022/09/19 10:05:07;;;;;;;;;;;18.00;99.90;;;;;;5040947;28;19920;-67
2022/09/19 10:07:39;;;;;;;;;;;17.80;99.90;;;;;;5052419;28;20287;-67
2022/09/19 10:10:11;;;;;;;;;;;17.70;99.90;;;;;;5051934;28;19914;-67
2022/09/19 10:12:44;;;;;;;;;;;17.50;99.90;;;;;;5051250;28;19919;-66
2022/09/19 10:15:14;;;;;;;;;;;17.40;99.90;;;;;;5056051;28;19925;-66
2022/09/19 10:17:41;;;;;;;;;;;17.70;99.90;;;;;;5050929;28;19913;-68
2022/09/19 10:20:10;;;;;;;;;;;17.50;99.90;;;;;;5051392;28;19913;-68
2022/09/19 10:22:36;;;;;;;;;;;17.90;99.90;;;;;;5048264;28;20437;-67
2022/09/19 10:25:08;;;;;;;;;;;18.30;99.90;;;;;;5050579;28;19913;-67
2022/09/19 10:30:21;;;;;;;;;;;18.90;99.90;;;;;;5095889;27;19958;-67
2022/09/19 10:32:47;;;;;;;;;;;18.20;99.90;;;;;;5081550;28;20472;-68
2022/09/19 10:35:25;;;;;;;;;;;17.40;99.90;;;;;;5076061;28;20306;-67
2022/09/19 10:37:51;;;;;;;;;;;17.60;99.90;;;;;;5076240;28;19959;-68
2022/09/19 10:40:17;;;;;;;;;;;18.50;99.90;;;;;;5080246;28;19958;-68
2022/09/19 10:42:43;;;;;;;;;;;18.80;99.90;;;;;;5076195;28;19916;-68
2022/09/19 10:45:26;;;;;;;;;;;19.40;99.90;;;;;;5070877;28;19966;-68
2022/09/19 10:47:55;;;;;;;;;;;19.50;99.90;;;;;;5081444;28;20329;-67
2022/09/19 10:50:22;;;;;;;;;;;19.90;99.90;;;;;;5070267;28;20004;-65
2022/09/19 10:52:48;;;;;;;;;;;19.00;99.90;;;;;;5072754;28;19920;-66
2022/09/19 10:55:15;;;;;;;;;;;19.10;99.90;;;;;;5073612;28;20011;-67
2022/09/19 10:57:44;;;;;;;;;;;18.70;99.90;;;;;;5067294;28;19921;-65
2022/09/19 11:03:05;;;;;;;;;;;17.50;99.90;;;;;;5091163;27;1871722;-65
2022/09/19 11:05:32;;;;;;;;;;;17.30;99.90;;;;;;5148580;27;20377;-66
2022/09/19 11:07:59;;;;;;;;;;;16.90;99.90;;;;;;5148812;27;20381;-67
2022/09/19 11:10:40;;;;;;;;;;;17.40;99.90;;;;;;5131301;27;20029;-67
2022/09/19 11:13:11;;;;;;;;;;;18.50;99.90;;;;;;5138436;27;20391;-66
2022/09/19 11:15:48;;;;;;;;;;;18.70;99.90;;;;;;5122536;27;19962;-66
2022/09/19 11:18:33;;;;;;;;;;;19.30;99.90;;;;;;5144685;27;20292;-67
2022/09/19 11:21:07;;;;;;;;;;;19.10;99.90;;;;;;5145875;27;20422;-66
2022/09/19 11:23:56;;;;;;;;;;;18.40;99.90;;;;;;5144632;27;19930;-67
2022/09/19 11:26:26;;;;;;;;;;;17.90;99.90;;;;;;5147750;27;20348;-67
2022/09/19 11:28:59;;;;;;;;;;;17.20;99.90;;;;;;5143173;27;20373;-67
2022/09/19 11:34:27;;;;;;;;;;;17.30;99.90;;;;;;5063260;28;20310;-68
2022/09/19 11:37:12;;;;;;;;;;;17.60;99.90;;;;;;5049296;28;20156;-68
2022/09/19 11:39:50;;;;;;;;;;;18.00;99.90;;;;;;5050147;28;20342;-68
2022/09/19 11:42:29;;;;;;;;;;;18.00;99.90;;;;;;5047985;28;19917;-69
2022/09/19 11:45:04;;;;;;;;;;;18.20;99.90;;;;;;5053794;28;19917;-69
2022/09/19 11:47:46;;;;;;;;;;;18.50;99.90;;;;;;5048073;28;19917;-67
2022/09/19 11:50:32;;;;;;;;;;;18.30;99.90;;;;;;5043213;28;20359;-69
2022/09/19 11:53:18;;;;;;;;;;;18.30;99.90;;;;;;5059085;28;20015;-68
2022/09/19 11:55:50;;;;;;;;;;;18.30;99.90;;;;;;5062253;28;19917;-68
2022/09/19 11:58:24;;;;;;;;;;;18.50;99.90;;;;;;5046403;28;19999;-69
2022/09/19 12:01:10;;;;;;;;;;;18.80;99.90;;;;;;5054699;28;20364;-68
2022/09/19 12:03:43;;;;;;;;;;;19.00;99.90;;;;;;5049576;28;20433;-68
2022/09/19 12:06:29;;;;;;;;;;;19.10;99.90;;;;;;5046411;28;20452;-69
2022/09/19 12:09:11;;;;;;;;;;;18.70;99.90;;;;;;5047353;28;19917;-68
2022/09/19 12:11:42;;;;;;;;;;;18.70;99.90;;;;;;5048680;28;19996;-69
2022/09/19 12:14:13;;;;;;;;;;;18.70;99.90;;;;;;5056675;28;20371;-68
2022/09/19 12:16:41;;;;;;;;;;;18.50;99.90;;;;;;5050742;28;19917;-69
2022/09/19 12:19:14;;;;;;;;;;;18.70;99.90;;;;;;5048880;28;20004;-68
2022/09/19 12:21:42;;;;;;;;;;;18.90;99.90;;;;;;5048839;28;20387;-68
2022/09/19 12:27:01;;;;;;;;;;;18.90;99.90;;;;;;5052491;28;19913;-67
2022/09/19 12:29:32;;;;;;;;;;;18.80;99.90;;;;;;5052975;28;19920;-68
2022/09/19 12:32:01;;;;;;;;;;;18.50;99.90;;;;;;5048268;28;19912;-67
2022/09/19 12:34:35;;;;;;;;;;;18.40;99.90;;;;;;5058017;28;20015;-67
2022/09/19 12:37:08;;;;;;;;;;;18.00;99.90;;;;;;5055850;28;20011;-67
2022/09/19 12:39:45;;;;;;;;;;;18.10;99.90;;;;;;5047229;28;20363;-67
2022/09/19 12:42:15;;;;;;;;;;;18.10;99.90;;;;;;5051838;28;20386;-67
2022/09/19 12:44:56;;;;;;;;;;;18.30;99.90;;;;;;5050564;28;19920;-68
2022/09/19 12:47:42;;;;;;;;;;;18.10;99.90;;;;;;5037574;28;19959;-68
2022/09/19 12:50:18;;;;;;;;;;;18.30;99.90;;;;;;5028560;28;20015;-67
2022/09/19 12:52:52;;;;;;;;;;;18.50;99.90;;;;;;5028693;28;19924;-69
2022/09/19 12:55:20;;;;;;;;;;;18.70;99.90;;;;;;5034164;28;19935;-67
2022/09/19 12:58:05;;;;;;;;;;;18.60;99.90;;;;;;5038383;28;19916;-68
2022/09/19 13:00:34;;;;;;;;;;;18.00;99.90;;;;;;5045709;28;19915;-68
2022/09/19 13:03:05;;;;;;;;;;;17.80;99.90;;;;;;5048312;28;19983;-68
2022/09/19 13:05:36;;;;;;;;;;;17.70;99.90;;;;;;5035322;28;20019;-68
2022/09/19 13:08:05;;;;;;;;;;;17.70;99.90;;;;;;5049428;28;19909;-69
2022/09/19 13:10:37;;;;;;;;;;;17.40;99.90;;;;;;5038617;28;20007;-68
2022/09/19 13:13:22;;;;;;;;;;;17.40;99.90;;;;;;5048595;28;20012;-68
2022/09/19 13:15:51;;;;;;;;;;;17.10;99.90;;;;;;5037832;28;20110;-68
2022/09/19 13:23:55;;;;;;;;;;;17.30;99.90;;;;;;5034619;28;19913;-68
2022/09/19 13:26:32;;;;;;;;;;;17.40;99.90;;;;;;5031487;28;19909;-69
2022/09/19 13:28:59;;;;;;;;;;;17.50;99.90;;;;;;5041873;28;19927;-68
2022/09/19 13:31:30;;;;;;;;;;;17.70;99.90;;;;;;5032823;28;19913;-68
2022/09/19 13:33:57;;;;;;;;;;;17.10;99.90;;;;;;5032628;28;19927;-68
2022/09/19 13:39:04;;;;;;;;;;;15.80;99.90;;;;;;5052906;28;20429;-69
2022/09/19 13:41:47;;;;;;;;;;;15.40;99.90;;;;;;5050822;28;19967;-67
2022/09/19 13:44:19;;;;;;;;;;;15.00;99.90;;;;;;5055620;28;19913;-68
2022/09/19 13:46:53;;;;;;;;;;;14.70;99.90;;;;;;5049901;28;20004;-67
2022/09/19 13:49:30;;;;;;;;;;;14.50;99.90;;;;;;5051167;28;20260;-67
2022/09/19 13:51:57;;;;;;;;;;;14.50;99.90;;;;;;5049262;28;19952;-68
2022/09/19 13:57:04;;;;;;;;;;;14.40;99.90;;;;;;5135048;27;19922;-67
2022/09/19 13:59:32;;;;;;;;;;;14.50;99.90;;;;;;5133963;27;19912;-67
2022/09/19 14:02:18;;;;;;;;;;;14.30;99.90;;;;;;5127908;27;19919;-67
2022/09/19 14:04:54;;;;;;;;;;;14.30;99.90;;;;;;5143211;27;19911;-67
2022/09/19 14:07:24;;;;;;;;;;;14.30;99.90;;;;;;5135254;27;20278;-66
2022/09/19 14:09:50;;;;;;;;;;;14.30;99.90;;;;;;5131978;27;19983;-67
2022/09/19 14:12:37;;;;;;;;;;;14.30;99.90;;;;;;5132415;27;19912;-67
2022/09/19 14:15:24;;;;;;;;;;;14.30;99.90;;;;;;5152046;27;20425;-67
2022/09/19 14:18:02;;;;;;;;;;;14.30;99.90;;;;;;5132373;27;20377;-67
2022/09/19 14:20:47;;;;;;;;;;;14.30;99.90;;;;;;5130194;27;19919;-67
2022/09/19 14:23:15;;;;;;;;;;;14.60;99.90;;;;;;5127023;27;19975;-68
2022/09/19 14:25:41;;;;;;;;;;;14.80;99.90;;;;;;5133185;27;19920;-68
2022/09/19 14:28:27;;;;;;;;;;;15.10;99.90;;;;;;5134428;27;19915;-68
2022/09/19 14:31:12;;;;;;;;;;;15.20;99.90;;;;;;5135706;27;20079;-68
2022/09/19 14:33:55;;;;;;;;;;;15.20;99.90;;;;;;5126830;27;19912;-68
2022/09/19 14:36:40;;;;;;;;;;;15.30;99.90;;;;;;5124250;27;20366;-67
2022/09/19 14:39:17;;;;;;;;;;;15.20;99.90;;;;;;5129980;27;20378;-69
2022/09/19 14:42:02;;;;;;;;;;;15.10;99.90;;;;;;5132504;27;19948;-69
2022/09/19 14:44:48;;;;;;;;;;;15.20;99.90;;;;;;5134839;27;20012;-68
2022/09/19 14:47:17;;;;;;;;;;;15.20;99.90;;;;;;5126673;27;19912;-69
2022/09/19 14:49:52;;;;;;;;;;;15.30;99.90;;;;;;5129180;27;19942;-68
2022/09/19 14:52:20;;;;;;;;;;;15.40;99.90;;;;;;5134599;27;19918;-69
2022/09/19 14:55:03;;;;;;;;;;;15.40;99.90;;;;;;5118801;27;19926;-69
2022/09/19 14:57:30;;;;;;;;;;;15.50;99.90;;;;;;5130813;27;20370;-69
2022/09/19 15:00:11;;;;;;;;;;;15.60;99.90;;;;;;5126578;27;19912;-70
2022/09/19 15:02:37;;;;;;;;;;;15.50;99.90;;;;;;5120567;27;20385;-69
2022/09/19 15:05:05;;;;;;;;;;;15.30;99.90;;;;;;5120153;27;19915;-70
2022/09/19 15:07:32;;;;;;;;;;;15.40;99.90;;;;;;5120570;27;19912;-69
2022/09/19 15:09:58;;;;;;;;;;;15.80;99.90;;;;;;5118503;27;19908;-67
2022/09/19 15:12:27;;;;;;;;;;;16.10;99.90;;;;;;5122011;27;19919;-66
2022/09/19 15:14:55;;;;;;;;;;;16.20;99.90;;;;;;5113880;27;19954;-66
2022/09/19 15:17:23;;;;;;;;;;;16.20;99.90;;;;;;5120756;27;20263;-68
2022/09/19 15:19:51;;;;;;;;;;;16.20;99.90;;;;;;5129436;27;20002;-67
2022/09/19 15:22:33;;;;;;;;;;;16.00;99.90;;;;;;5126530;27;19920;-68
2022/09/19 15:25:01;;;;;;;;;;;15.80;99.90;;;;;;5111296;27;19919;-66